• pl
  • eng

Awiacja
Kliknij na pogrubioną czerwoną nazwę, aby odkodować depeszę. 02:31 22.01.2017
  • WIND
  • SIGNIFICANT EURO
  • SIGNIFICANT
  • SIGMET
  • AIRMET
  • TAF FC
  • TAF FT
  • METAR GG30
  • METAR GG00


METAR EPBY 220130Z 23003KT 5000 BR OVC003 01/01 Q1033 =

METAR EPGD 220130Z 21005KT 1600 BR OVC001 M01/M01 Q1031 =

METAR EPKK 220130Z 12004KT 9999 OVC013 01/M03 Q1033 =

METAR EPKT 220130Z 14005KT 3600 BR OVC012 M01/M02 Q1032 =

METAR EPLB 220130Z 29002KT 2500 BR OVC007 00/00 Q1034 =

METAR EPLL 220130Z VRB02KT 9000 OVC005 00/00 Q1033 R25/29//95 =

METAR EPMO 220130Z 26006KT 3500 BR OVC003 00/00 Q1033 R08/290195 =

METAR EPPO 220130Z 15003KT 0450 R28/1500 FG OVC001 00/00 Q1033
R10/29//95 =

METAR EPRA 220130Z NIL=

METAR EPRZ 220130Z 26001KT 2000 BR OVC013 M00/M01 Q1034 =

METAR EPSC 220130Z 15005KT 0200 R31/0700N FG VV001 01/01 Q1032 =

METAR EPSY 220130Z NIL=

METAR EPWA 220130Z VRB02KT 6000 OVC003 01/M00 Q1034 BECMG 5000 BR=

METAR EPWR 220130Z 13008KT 0200 R29/0750N FZFG VV001 M03/M04 Q1033 =

METAR EPZG 220130Z NIL=
Awiacja.imgw.pl jest pogodowym serwisem informacyjnym
Instytutu Meteorologii i Gospodarki Wodnej Państwowego Instytutu Badawczego.
Copyright IMGW PIB 2009-2011© Wszelkie prawa zastrzeżone.